createdAt,value
2018-11-14T00:00:22.119Z,3.70
2018-11-14T00:05:25.439Z,3.70
2018-11-14T00:10:29.524Z,4.47
2018-11-14T01:47:35.042Z,2.93
2018-11-14T01:52:39.122Z,1.70
2018-11-14T01:57:42.440Z,1.97
2018-11-14T03:34:47.352Z,2.47
2018-11-14T03:39:51.434Z,1.90
2018-11-14T03:44:54.763Z,1.83
2018-11-14T04:47:29.576Z,2.00
2018-11-14T04:52:32.899Z,1.67
2018-11-14T04:57:36.223Z,3.60
2018-11-14T05:31:24.791Z,3.27
2018-11-14T05:36:28.890Z,2.73
2018-11-14T05:41:32.219Z,2.50
2018-11-14T05:46:35.544Z,3.83
2018-11-14T05:51:38.858Z,2.03
2018-11-14T05:56:42.203Z,2.63
2018-11-14T06:01:45.518Z,2.53
2018-11-14T06:06:52.053Z,3.53
2018-11-14T06:11:55.379Z,1.97
2018-11-14T06:16:58.702Z,5.97
2018-11-14T06:22:04.928Z,5.50
2018-11-14T06:27:08.138Z,4.47
2018-11-14T06:32:11.458Z,3.63
2018-11-14T06:37:14.787Z,3.87
2018-11-14T06:42:18.114Z,4.23
2018-11-14T06:47:21.446Z,4.23
2018-11-14T06:52:24.757Z,6.53
2018-11-14T06:57:31.943Z,4.30
2018-11-14T07:02:38.337Z,5.90
2018-11-14T07:07:39.374Z,5.13
2018-11-14T07:12:42.692Z,4.00
2018-11-14T07:17:46.073Z,6.80
2018-11-14T07:22:50.130Z,8.17
2018-11-14T07:27:53.434Z,8.03
2018-11-14T08:01:43.748Z,17.23
2018-11-14T08:06:47.552Z,27.77
2018-11-14T08:11:50.879Z,20.73
2018-11-14T09:02:55.540Z,20.33
2018-11-14T09:07:58.871Z,21.17
2018-11-14T09:13:02.236Z,23.47
2018-11-14T10:04:06.090Z,16.47
2018-11-14T10:09:09.419Z,18.60
2018-11-14T10:14:12.746Z,18.77
2018-11-14T11:05:31.839Z,16.00
2018-11-14T11:10:35.280Z,16.43
2018-11-14T12:01:40.455Z,22.43
2018-11-14T12:06:43.783Z,17.67
2018-11-14T12:11:47.886Z,14.13
2018-11-14T13:02:51.718Z,13.90
2018-11-14T13:07:55.050Z,13.10
2018-11-14T13:12:58.374Z,13.93
2018-11-14T14:04:02.457Z,12.97
2018-11-14T14:09:06.146Z,11.83
2018-11-14T14:14:09.583Z,14.70
2018-11-14T15:05:15.081Z,15.90
2018-11-14T15:10:18.423Z,20.87
2018-11-14T15:49:52.819Z,20.23
2018-11-14T15:54:56.903Z,16.37
2018-11-14T16:00:00.234Z,18.60
2018-11-14T16:33:48.782Z,18.27
2018-11-14T16:38:52.112Z,19.90
2018-11-14T16:43:55.440Z,21.43
2018-11-14T16:48:58.782Z,22.47
2018-11-14T16:54:02.111Z,20.07
2018-11-14T16:59:06.216Z,21.33
2018-11-14T17:04:09.554Z,26.43
2018-11-14T17:09:12.884Z,22.67
2018-11-14T17:14:16.257Z,21.30
2018-11-14T17:19:19.579Z,20.03
2018-11-14T17:24:22.905Z,19.83
2018-11-14T17:29:26.249Z,21.27
2018-11-14T17:34:34.024Z,21.23
2018-11-14T17:39:38.129Z,20.50
2018-11-14T17:44:41.462Z,21.97
2018-11-14T17:49:44.795Z,24.40
2018-11-14T17:54:48.885Z,22.33
2018-11-14T17:59:52.210Z,24.80
2018-11-14T18:04:55.535Z,21.93
2018-11-14T18:09:59.630Z,25.10
2018-11-14T18:15:02.955Z,24.67
2018-11-14T18:20:06.301Z,27.47
2018-11-14T18:25:10.400Z,27.27
2018-11-14T18:30:13.737Z,29.27
2018-11-14T18:35:17.836Z,27.53
2018-11-14T18:40:21.171Z,28.90
2018-11-14T18:45:24.507Z,32.57
2018-11-14T18:50:27.855Z,30.43
2018-11-14T18:55:31.186Z,31.77
2018-11-14T19:00:34.516Z,34.20
2018-11-14T19:05:37.843Z,32.47
2018-11-14T19:10:41.941Z,29.43
2018-11-14T19:15:45.275Z,27.43
2018-11-14T19:20:48.605Z,37.37
2018-11-14T19:25:52.695Z,31.77
2018-11-14T19:30:56.023Z,34.47
2018-11-14T19:36:00.120Z,30.60
2018-11-14T19:41:03.517Z,31.47
2018-11-14T19:46:07.581Z,28.77
2018-11-14T19:51:10.910Z,35.40
2018-11-14T19:56:14.243Z,32.27
2018-11-14T20:01:18.345Z,33.63
2018-11-14T20:06:21.682Z,32.30
2018-11-14T20:11:25.011Z,30.80
2018-11-14T20:16:29.120Z,33.43
2018-11-14T20:21:32.450Z,35.60
2018-11-14T20:26:36.547Z,31.90
2018-11-14T20:31:39.928Z,36.03
2018-11-14T20:36:43.982Z,39.03
2018-11-14T20:41:47.314Z,33.30
2018-11-14T20:46:50.651Z,36.73
2018-11-14T20:51:53.986Z,37.47
2018-11-14T20:56:57.308Z,35.03
2018-11-14T21:02:00.641Z,39.83
2018-11-14T21:07:03.966Z,41.97
2018-11-14T21:12:07.314Z,35.43
2018-11-14T21:17:11.407Z,43.47
2018-11-14T21:22:14.738Z,37.73
2018-11-14T21:27:18.071Z,35.73
2018-11-14T21:32:22.170Z,36.30
2018-11-14T21:37:25.656Z,37.93
2018-11-14T21:42:29.112Z,35.23
2018-11-14T21:47:32.441Z,31.00
2018-11-14T21:52:36.583Z,31.93
2018-11-14T21:57:39.925Z,32.73
2018-11-14T22:02:43.447Z,30.43
2018-11-14T22:07:46.777Z,27.43
2018-11-14T22:12:50.112Z,27.13
2018-11-14T22:17:53.441Z,29.43
2018-11-14T22:22:56.779Z,27.73
2018-11-14T22:28:00.158Z,21.57
2018-11-14T22:33:03.639Z,21.37
2018-11-14T22:38:06.974Z,23.53
2018-11-14T22:43:10.699Z,23.10
2018-11-14T22:48:14.040Z,20.77
2018-11-14T22:53:17.374Z,23.03
2018-11-14T22:58:20.707Z,20.70
2018-11-14T23:03:24.029Z,22.07
2018-11-14T23:08:27.359Z,23.93
2018-11-14T23:13:30.696Z,23.07
2018-11-14T23:18:34.828Z,20.03
2018-11-14T23:23:38.128Z,22.50
2018-11-14T23:28:42.220Z,19.30
2018-11-14T23:33:45.563Z,20.47
2018-11-14T23:38:48.896Z,17.63
2018-11-14T23:43:52.227Z,18.87
2018-11-14T23:48:55.564Z,17.43
2018-11-14T23:53:58.885Z,19.23
2018-11-14T23:59:02.210Z,19.83
